Time;durP1;ratioP1;P1;durP2;ratioP2;P2;SDS_P1;SDS_P2;PMS_P1;PMS_P2;Temp;Humidity;BMP_temperature;BMP_pressure;BME280_temperature;BME280_humidity;BME280_pressure;Samples;Min_cycle;Max_cycle;Signal;HPM_P1;HPM_P2
2022/03/26 00:00:25;;;;;;;10.75;7.72;;;;;;;;;;5060249;28;20080;-69
2022/03/26 00:02:51;;;;;;;11.00;7.30;;;;;;;;;;5045711;28;20663;-69
2022/03/26 00:05:18;;;;;;;9.50;7.20;;;;;;;;;;5045172;28;20052;-70
2022/03/26 00:07:45;;;;;;;9.25;7.10;;;;;;;;;;5043943;28;20025;-70
2022/03/26 00:10:11;;;;;;;8.70;6.05;;;;;;;;;;5045527;28;20546;-69
2022/03/26 00:12:37;;;;;;;11.15;6.47;;;;;;;;;;5046439;28;20512;-70
2022/03/26 00:15:04;;;;;;;7.10;5.72;;;;;;;;;;5039716;28;20541;-70
2022/03/26 00:17:31;;;;;;;8.73;5.88;;;;;;;;;;5038144;28;20021;-69
2022/03/26 00:19:57;;;;;;;7.65;5.55;;;;;;;;;;5038788;28;20033;-70
2022/03/26 00:22:23;;;;;;;6.95;5.65;;;;;;;;;;5038547;28;20026;-70
2022/03/26 00:24:50;;;;;;;9.45;5.82;;;;;;;;;;5043820;28;20114;-70
2022/03/26 00:27:17;;;;;;;7.45;5.38;;;;;;;;;;5041932;28;20032;-69
2022/03/26 00:29:43;;;;;;;8.15;5.32;;;;;;;;;;5038701;28;20884;-70
2022/03/26 00:32:09;;;;;;;8.52;5.72;;;;;;;;;;5036948;28;20030;-69
2022/03/26 00:34:36;;;;;;;6.60;5.88;;;;;;;;;;5038409;28;20025;-69
2022/03/26 00:37:02;;;;;;;6.50;5.80;;;;;;;;;;5012622;28;20418;-69
2022/03/26 00:39:28;;;;;;;8.27;5.28;;;;;;;;;;5035268;28;20039;-69
2022/03/26 00:41:55;;;;;;;8.88;5.40;;;;;;;;;;5038387;28;20039;-69
2022/03/26 00:44:21;;;;;;;7.55;5.47;;;;;;;;;;5034927;28;20532;-70
2022/03/26 00:46:47;;;;;;;7.63;5.13;;;;;;;;;;5034318;28;20427;-70
2022/03/26 00:49:14;;;;;;;7.13;5.50;;;;;;;;;;5033948;28;20109;-69
2022/03/26 00:51:41;;;;;;;8.73;6.05;;;;;;;;;;5034268;28;20071;-69
2022/03/26 00:54:11;;;;;;;8.35;6.18;;;;;;;;;;5035794;28;20040;-70
2022/03/26 00:56:37;;;;;;;9.32;5.88;;;;;;;;;;5029818;28;20056;-69
2022/03/26 00:59:04;;;;;;;8.35;6.00;;;;;;;;;;5038210;28;20029;-70
2022/03/26 01:01:31;;;;;;;11.95;6.88;;;;;;;;;;5031081;28;20025;-69
2022/03/26 01:03:58;;;;;;;9.40;6.82;;;;;;;;;;5033277;28;20434;-69
2022/03/26 01:06:24;;;;;;;10.93;7.15;;;;;;;;;;5033005;28;20373;-70
2022/03/26 01:08:50;;;;;;;12.10;7.32;;;;;;;;;;5034887;28;20029;-69
2022/03/26 01:11:17;;;;;;;8.73;6.35;;;;;;;;;;5025103;28;20056;-69
2022/03/26 01:13:44;;;;;;;10.90;6.53;;;;;;;;;;5036078;28;20051;-70
2022/03/26 01:16:10;;;;;;;10.77;6.32;;;;;;;;;;5031587;28;20021;-70
2022/03/26 01:18:36;;;;;;;9.02;6.10;;;;;;;;;;5015598;28;20052;-69
2022/03/26 01:21:03;;;;;;;8.48;5.43;;;;;;;;;;5028561;28;20480;-69
2022/03/26 01:23:29;;;;;;;8.88;6.05;;;;;;;;;;5033893;28;20291;-69
2022/03/26 01:25:56;;;;;;;8.93;6.35;;;;;;;;;;5030051;28;20036;-69
2022/03/26 01:28:22;;;;;;;9.90;6.45;;;;;;;;;;5012134;28;20493;-69
2022/03/26 01:30:48;;;;;;;9.65;6.50;;;;;;;;;;5032173;28;20029;-69
2022/03/26 01:33:14;;;;;;;8.95;6.45;;;;;;;;;;5033040;28;20404;-69
2022/03/26 01:35:40;;;;;;;9.27;6.63;;;;;;;;;;5034415;28;20484;-69
2022/03/26 01:38:07;;;;;;;12.63;6.68;;;;;;;;;;5031132;28;20040;-70
2022/03/26 01:40:34;;;;;;;10.27;6.70;;;;;;;;;;5029792;28;20052;-69
2022/03/26 01:43:01;;;;;;;11.05;7.00;;;;;;;;;;5037859;28;20021;-70
2022/03/26 01:45:27;;;;;;;10.65;6.32;;;;;;;;;;5036643;28;20043;-69
2022/03/26 01:47:54;;;;;;;11.50;6.50;;;;;;;;;;5036941;28;20554;-69
2022/03/26 01:50:20;;;;;;;7.53;6.45;;;;;;;;;;5039014;28;20045;-71
2022/03/26 01:52:46;;;;;;;9.10;6.78;;;;;;;;;;5035928;28;20025;-69
2022/03/26 01:55:12;;;;;;;16.50;6.82;;;;;;;;;;5035068;28;20017;-69
2022/03/26 01:57:39;;;;;;;8.10;6.10;;;;;;;;;;5037788;28;20033;-69
2022/03/26 02:00:08;;;;;;;10.77;6.25;;;;;;;;;;5032795;28;20477;-70
2022/03/26 02:02:34;;;;;;;9.80;5.90;;;;;;;;;;5035795;28;20037;-69
2022/03/26 02:05:00;;;;;;;7.43;5.63;;;;;;;;;;5037211;28;20131;-69
2022/03/26 02:07:26;;;;;;;7.70;4.85;;;;;;;;;;5015278;28;20393;-69
2022/03/26 02:09:52;;;;;;;6.30;4.88;;;;;;;;;;5036494;28;20029;-70
2022/03/26 02:12:25;;;;;;;11.48;5.60;;;;;;;;;;5035774;28;20030;-73
2022/03/26 02:14:52;;;;;;;5.63;4.80;;;;;;;;;;5020872;28;21028;-71
2022/03/26 02:17:18;;;;;;;9.00;5.10;;;;;;;;;;5024510;28;20021;-70
2022/03/26 02:20:04;;;;;;;8.30;4.65;;;;;;;;;;5039092;28;20033;-71
2022/03/26 02:22:31;;;;;;;7.03;4.00;;;;;;;;;;5037532;28;20043;-70
2022/03/26 02:24:57;;;;;;;7.68;3.95;;;;;;;;;;5037348;28;20504;-71
2022/03/26 02:27:24;;;;;;;4.75;3.28;;;;;;;;;;5040915;28;20079;-70
2022/03/26 02:29:51;;;;;;;6.65;4.03;;;;;;;;;;5037453;28;20055;-70
2022/03/26 02:32:21;;;;;;;5.63;3.80;;;;;;;;;;5036821;28;20036;-71
2022/03/26 02:34:48;;;;;;;5.25;3.45;;;;;;;;;;5036474;28;20101;-70
2022/03/26 02:37:14;;;;;;;5.63;3.40;;;;;;;;;;5036215;28;20040;-70
2022/03/26 02:39:40;;;;;;;5.15;3.55;;;;;;;;;;5034721;28;20055;-70
2022/03/26 02:42:07;;;;;;;5.30;2.97;;;;;;;;;;5039063;28;20040;-70
2022/03/26 02:44:33;;;;;;;3.22;2.42;;;;;;;;;;5031657;28;20048;-70
2022/03/26 02:46:59;;;;;;;4.20;2.83;;;;;;;;;;5027587;28;20074;-71
2022/03/26 02:49:25;;;;;;;3.83;2.78;;;;;;;;;;5013444;28;20037;-70
2022/03/26 02:51:51;;;;;;;3.38;2.55;;;;;;;;;;5037159;28;20028;-71
2022/03/26 02:54:20;;;;;;;3.75;2.50;;;;;;;;;;5040682;28;20028;-70
2022/03/26 02:56:50;;;;;;;5.18;3.08;;;;;;;;;;5029223;28;20407;-71
2022/03/26 02:59:17;;;;;;;6.05;3.13;;;;;;;;;;5032430;28;20132;-72
2022/03/26 03:01:43;;;;;;;5.15;3.10;;;;;;;;;;5031985;28;20025;-70
2022/03/26 03:04:09;;;;;;;5.82;4.18;;;;;;;;;;5032865;28;20048;-70
2022/03/26 03:06:35;;;;;;;6.75;3.58;;;;;;;;;;5035201;28;20025;-71
2022/03/26 03:09:03;;;;;;;6.03;3.63;;;;;;;;;;5039184;28;20037;-70
2022/03/26 03:11:29;;;;;;;3.97;3.03;;;;;;;;;;5035069;28;20036;-70
2022/03/26 03:13:56;;;;;;;3.85;2.53;;;;;;;;;;5035715;28;20056;-71
2022/03/26 03:16:22;;;;;;;5.47;2.92;;;;;;;;;;5030845;28;20370;-71
2022/03/26 03:18:48;;;;;;;4.97;3.45;;;;;;;;;;5036921;28;20037;-70
2022/03/26 03:21:14;;;;;;;6.75;4.32;;;;;;;;;;5034432;28;20040;-70
2022/03/26 03:23:40;;;;;;;6.93;3.95;;;;;;;;;;5028290;28;20041;-70
2022/03/26 03:26:06;;;;;;;4.32;3.28;;;;;;;;;;5035849;28;20596;-70
2022/03/26 03:28:33;;;;;;;5.28;3.00;;;;;;;;;;5031502;28;20041;-70
2022/03/26 03:30:59;;;;;;;12.43;5.40;;;;;;;;;;5016658;28;20033;-70
2022/03/26 03:33:25;;;;;;;10.05;6.40;;;;;;;;;;5029021;28;20033;-70
2022/03/26 03:35:53;;;;;;;12.40;6.78;;;;;;;;;;5036637;28;20040;-70
2022/03/26 03:38:19;;;;;;;10.48;6.70;;;;;;;;;;5034534;28;20056;-70
2022/03/26 03:40:46;;;;;;;9.95;7.32;;;;;;;;;;5039419;28;20040;-70
2022/03/26 03:43:12;;;;;;;9.57;6.80;;;;;;;;;;5014586;28;20029;-70
2022/03/26 03:45:38;;;;;;;9.98;6.00;;;;;;;;;;5036077;28;20115;-70
2022/03/26 03:48:04;;;;;;;11.75;5.78;;;;;;;;;;5035297;28;20680;-70
2022/03/26 03:50:30;;;;;;;7.90;5.28;;;;;;;;;;5037030;28;20090;-70
2022/03/26 03:52:57;;;;;;;8.10;5.13;;;;;;;;;;5030465;28;20362;-70
2022/03/26 03:55:24;;;;;;;6.32;4.40;;;;;;;;;;5020469;28;20040;-70
2022/03/26 03:57:50;;;;;;;7.07;3.97;;;;;;;;;;5035163;28;20029;-71
2022/03/26 04:00:17;;;;;;;9.80;5.10;;;;;;;;;;5032031;28;20037;-70
2022/03/26 04:02:44;;;;;;;10.10;5.82;;;;;;;;;;5037711;28;20033;-70
2022/03/26 04:05:10;;;;;;;8.07;5.40;;;;;;;;;;5034322;28;20053;-70
2022/03/26 04:07:40;;;;;;;7.53;5.78;;;;;;;;;;5045733;28;20481;-70
2022/03/26 04:10:07;;;;;;;11.57;6.15;;;;;;;;;;5037204;28;20059;-70
2022/03/26 04:12:36;;;;;;;7.13;5.47;;;;;;;;;;5031910;28;20027;-70
2022/03/26 04:15:04;;;;;;;9.13;5.50;;;;;;;;;;5031700;28;20039;-70
2022/03/26 04:17:30;;;;;;;8.32;6.22;;;;;;;;;;5032146;28;20022;-70
2022/03/26 04:19:56;;;;;;;9.45;5.35;;;;;;;;;;5037186;28;20033;-70
2022/03/26 04:22:22;;;;;;;7.03;4.53;;;;;;;;;;5041769;28;20017;-70
2022/03/26 04:24:49;;;;;;;6.10;3.22;;;;;;;;;;5043004;28;20484;-69
2022/03/26 04:27:15;;;;;;;6.40;3.05;;;;;;;;;;5042943;28;20078;-70
2022/03/26 04:29:41;;;;;;;4.75;2.60;;;;;;;;;;5042759;28;20032;-70
2022/03/26 04:32:10;;;;;;;4.22;2.63;;;;;;;;;;5023087;28;20030;-71
2022/03/26 04:34:36;;;;;;;4.93;2.75;;;;;;;;;;5023256;28;20024;-70
2022/03/26 04:37:02;;;;;;;6.13;3.13;;;;;;;;;;5054534;28;20697;-70
2022/03/26 04:39:29;;;;;;;4.07;3.05;;;;;;;;;;5060275;28;20036;-71
2022/03/26 04:41:55;;;;;;;3.97;2.42;;;;;;;;;;5040759;28;20464;-70
2022/03/26 04:44:21;;;;;;;4.57;2.60;;;;;;;;;;5060451;28;20040;-70
2022/03/26 04:46:47;;;;;;;3.95;2.88;;;;;;;;;;5059858;28;20036;-70
2022/03/26 04:49:13;;;;;;;6.72;2.97;;;;;;;;;;5060396;28;20074;-70
2022/03/26 04:51:40;;;;;;;6.10;3.03;;;;;;;;;;5056930;28;20032;-70
2022/03/26 04:54:06;;;;;;;5.63;3.00;;;;;;;;;;5060631;28;20036;-70
2022/03/26 04:56:32;;;;;;;4.25;2.90;;;;;;;;;;5060369;28;20044;-70
2022/03/26 04:58:58;;;;;;;4.85;3.00;;;;;;;;;;5059823;28;20024;-70
2022/03/26 05:01:24;;;;;;;3.83;2.50;;;;;;;;;;5058451;28;20059;-70
2022/03/26 05:03:51;;;;;;;6.05;3.05;;;;;;;;;;5055986;28;20037;-71
2022/03/26 05:06:17;;;;;;;4.93;3.72;;;;;;;;;;5038931;28;20025;-70
2022/03/26 05:08:43;;;;;;;7.95;4.50;;;;;;;;;;5040294;28;20025;-70
2022/03/26 05:11:09;;;;;;;7.70;4.45;;;;;;;;;;5037885;28;20075;-70
2022/03/26 05:13:35;;;;;;;7.68;5.03;;;;;;;;;;5040552;28;20436;-70
2022/03/26 05:16:04;;;;;;;6.88;3.97;;;;;;;;;;5039874;28;20709;-74
2022/03/26 05:18:30;;;;;;;5.93;4.50;;;;;;;;;;5039408;28;20468;-70
2022/03/26 05:20:56;;;;;;;8.60;4.90;;;;;;;;;;5040150;28;20025;-70
2022/03/26 05:23:23;;;;;;;6.20;4.30;;;;;;;;;;5038125;28;20029;-70
2022/03/26 05:25:50;;;;;;;6.00;4.00;;;;;;;;;;5039993;28;20317;-70
2022/03/26 05:28:16;;;;;;;6.18;4.45;;;;;;;;;;5039460;28;20040;-69
2022/03/26 05:30:42;;;;;;;7.80;5.00;;;;;;;;;;5039201;28;20025;-70
2022/03/26 05:33:09;;;;;;;7.80;5.07;;;;;;;;;;5032408;28;20312;-70
2022/03/26 05:35:35;;;;;;;7.07;4.30;;;;;;;;;;5057246;28;20025;-69
2022/03/26 05:38:01;;;;;;;6.15;4.07;;;;;;;;;;5061880;28;20434;-69
2022/03/26 05:40:27;;;;;;;7.30;3.50;;;;;;;;;;5061619;28;20253;-69
2022/03/26 05:42:53;;;;;;;4.28;3.45;;;;;;;;;;5062007;28;20175;-70
2022/03/26 05:45:20;;;;;;;13.45;3.60;;;;;;;;;;5061774;28;20040;-76
2022/03/26 05:47:51;;;;;;;10.27;4.03;;;;;;;;;;5051083;28;20021;-70
2022/03/26 05:50:18;;;;;;;5.60;4.28;;;;;;;;;;5039890;28;20029;-70
2022/03/26 05:52:44;;;;;;;14.32;5.60;;;;;;;;;;5039364;28;20535;-69
2022/03/26 05:55:11;;;;;;;7.53;5.55;;;;;;;;;;5045101;28;20045;-69
2022/03/26 05:57:37;;;;;;;6.43;4.78;;;;;;;;;;5059225;28;20229;-71
2022/03/26 06:00:04;;;;;;;11.45;4.38;;;;;;;;;;5059142;28;20020;-70
2022/03/26 06:02:31;;;;;;;4.00;2.90;;;;;;;;;;5057976;28;20035;-70
2022/03/26 06:04:57;;;;;;;5.45;2.40;;;;;;;;;;5059169;28;20511;-69
2022/03/26 06:07:23;;;;;;;3.20;1.75;;;;;;;;;;5047246;28;20029;-70
2022/03/26 06:09:49;;;;;;;2.88;1.70;;;;;;;;;;5039342;28;20039;-70
2022/03/26 06:12:15;;;;;;;5.40;2.33;;;;;;;;;;5036285;28;20976;-70
2022/03/26 06:14:42;;;;;;;17.33;6.78;;;;;;;;;;5037912;28;20025;-70
2022/03/26 06:17:08;;;;;;;12.77;6.70;;;;;;;;;;5038734;28;20025;-71
2022/03/26 06:19:34;;;;;;;18.40;8.27;;;;;;;;;;5038111;28;20033;-70
2022/03/26 06:22:00;;;;;;;14.40;8.45;;;;;;;;;;5037435;28;20025;-69
2022/03/26 06:24:26;;;;;;;18.48;8.68;;;;;;;;;;5041311;28;20391;-70
2022/03/26 06:26:52;;;;;;;16.52;7.10;;;;;;;;;;5041206;28;20041;-69
2022/03/26 06:29:19;;;;;;;21.33;7.15;;;;;;;;;;5025006;28;20024;-69
2022/03/26 06:31:45;;;;;;;8.48;5.55;;;;;;;;;;5043171;28;20052;-70
2022/03/26 06:34:12;;;;;;;8.15;4.97;;;;;;;;;;5042608;28;20071;-69
2022/03/26 06:36:39;;;;;;;7.40;4.35;;;;;;;;;;5048209;28;20040;-70
2022/03/26 06:39:06;;;;;;;6.60;4.85;;;;;;;;;;5062488;28;20024;-69
2022/03/26 06:41:32;;;;;;;6.38;4.28;;;;;;;;;;5062515;28;20017;-70
2022/03/26 06:43:58;;;;;;;6.95;4.35;;;;;;;;;;5062580;28;20040;-69
2022/03/26 06:46:24;;;;;;;5.07;3.95;;;;;;;;;;5061121;28;20025;-70
2022/03/26 06:48:51;;;;;;;6.28;4.20;;;;;;;;;;5061959;28;20032;-69
2022/03/26 06:51:17;;;;;;;4.53;3.63;;;;;;;;;;5062276;28;20030;-70
2022/03/26 06:53:43;;;;;;;11.73;6.28;;;;;;;;;;5044673;28;20028;-70
2022/03/26 06:56:09;;;;;;;9.80;6.07;;;;;;;;;;5062196;28;20025;-69
2022/03/26 06:58:35;;;;;;;8.05;5.50;;;;;;;;;;5061960;28;20112;-70
2022/03/26 07:01:02;;;;;;;22.73;5.72;;;;;;;;;;5060532;28;20503;-69
2022/03/26 07:03:29;;;;;;;9.88;6.18;;;;;;;;;;5062294;28;20033;-71
2022/03/26 07:05:55;;;;;;;14.50;6.47;;;;;;;;;;5044441;28;20064;-74
2022/03/26 07:08:21;;;;;;;15.10;7.03;;;;;;;;;;5039792;28;20110;-70
2022/03/26 07:10:47;;;;;;;12.05;6.53;;;;;;;;;;5040496;28;20438;-69
2022/03/26 07:13:14;;;;;;;12.43;6.45;;;;;;;;;;5041669;28;20040;-70
2022/03/26 07:15:40;;;;;;;12.32;6.90;;;;;;;;;;5041861;28;20029;-70
2022/03/26 07:18:07;;;;;;;8.90;5.63;;;;;;;;;;5041994;28;20021;-69
2022/03/26 07:20:33;;;;;;;9.45;6.40;;;;;;;;;;5041585;28;20067;-71
2022/03/26 07:23:00;;;;;;;10.18;6.70;;;;;;;;;;5040044;28;20024;-69
2022/03/26 07:25:26;;;;;;;9.10;6.93;;;;;;;;;;5041631;28;20055;-70
2022/03/26 07:27:52;;;;;;;9.82;7.18;;;;;;;;;;5041501;28;20507;-73
2022/03/26 07:30:19;;;;;;;12.20;7.15;;;;;;;;;;5023426;28;20059;-70
2022/03/26 07:32:45;;;;;;;18.60;8.38;;;;;;;;;;5040230;28;20036;-70
2022/03/26 07:35:12;;;;;;;15.45;9.93;;;;;;;;;;5040501;28;20021;-69
2022/03/26 07:37:38;;;;;;;21.67;13.05;;;;;;;;;;5041139;28;20095;-69
2022/03/26 07:40:04;;;;;;;18.35;11.63;;;;;;;;;;5041601;28;20118;-70
2022/03/26 07:42:30;;;;;;;21.33;12.80;;;;;;;;;;5041397;28;20021;-70
2022/03/26 07:44:57;;;;;;;20.92;12.10;;;;;;;;;;5041105;28;20037;-70
2022/03/26 07:47:23;;;;;;;23.50;14.45;;;;;;;;;;5056645;28;20033;-70
2022/03/26 07:49:49;;;;;;;21.90;13.13;;;;;;;;;;5061070;28;20025;-70
2022/03/26 07:52:16;;;;;;;19.10;12.02;;;;;;;;;;5061725;28;20132;-70
2022/03/26 07:54:42;;;;;;;31.58;13.00;;;;;;;;;;5060919;28;20437;-69
2022/03/26 07:57:09;;;;;;;16.50;7.82;;;;;;;;;;5060807;28;20029;-70
2022/03/26 07:59:35;;;;;;;14.70;7.40;;;;;;;;;;5059502;28;20111;-70
2022/03/26 08:02:01;;;;;;;10.52;6.43;;;;;;;;;;5048027;28;20482;-70
2022/03/26 08:04:27;;;;;;;11.32;6.43;;;;;;;;;;5047076;28;20067;-70
2022/03/26 08:06:53;;;;;;;9.40;6.10;;;;;;;;;;5030835;28;20020;-70
2022/03/26 08:09:19;;;;;;;8.43;6.13;;;;;;;;;;5043223;28;20056;-71
2022/03/26 08:11:46;;;;;;;9.95;5.40;;;;;;;;;;5042137;28;20127;-72
2022/03/26 08:14:15;;;;;;;10.48;6.38;;;;;;;;;;5043872;28;20082;-71
2022/03/26 08:16:41;;;;;;;9.65;6.00;;;;;;;;;;5042987;28;20481;-70
2022/03/26 08:19:07;;;;;;;10.55;6.68;;;;;;;;;;5019057;28;20025;-71
2022/03/26 08:21:35;;;;;;;9.68;6.05;;;;;;;;;;5020747;28;20025;-70
2022/03/26 08:24:02;;;;;;;7.82;5.53;;;;;;;;;;5029538;28;20063;-74
2022/03/26 08:26:29;;;;;;;9.88;6.20;;;;;;;;;;5032242;28;20472;-71
2022/03/26 08:28:57;;;;;;;9.18;5.95;;;;;;;;;;5043442;28;20779;-71
2022/03/26 08:31:24;;;;;;;7.07;5.05;;;;;;;;;;5041735;28;20035;-71
2022/03/26 08:33:50;;;;;;;5.88;4.40;;;;;;;;;;5054911;28;20032;-75
2022/03/26 08:36:17;;;;;;;7.82;4.50;;;;;;;;;;5039494;28;20020;-71
2022/03/26 08:38:46;;;;;;;7.97;4.55;;;;;;;;;;5040070;28;20024;-71
2022/03/26 08:41:13;;;;;;;9.20;5.72;;;;;;;;;;5036854;28;20135;-75
2022/03/26 08:43:40;;;;;;;10.70;6.40;;;;;;;;;;5045183;28;20020;-70
2022/03/26 08:46:06;;;;;;;10.27;6.10;;;;;;;;;;5033346;28;20029;-71
2022/03/26 08:48:32;;;;;;;10.98;6.32;;;;;;;;;;5020756;28;20028;-71
2022/03/26 08:50:58;;;;;;;9.02;6.22;;;;;;;;;;5039548;28;20027;-71
2022/03/26 08:53:24;;;;;;;11.63;5.72;;;;;;;;;;5036324;28;20025;-71
2022/03/26 08:55:51;;;;;;;7.47;5.35;;;;;;;;;;5022287;28;20029;-70
2022/03/26 08:58:18;;;;;;;10.15;5.65;;;;;;;;;;5034717;28;20119;-71
2022/03/26 09:00:48;;;;;;;6.63;4.32;;;;;;;;;;5026058;28;20527;-71
2022/03/26 09:03:21;;;;;;;5.38;4.38;;;;;;;;;;5025888;28;20082;-70
2022/03/26 09:05:51;;;;;;;6.45;4.90;;;;;;;;;;5041392;28;20059;-70
2022/03/26 09:08:17;;;;;;;7.78;5.38;;;;;;;;;;5039212;28;20879;-72
2022/03/26 09:10:44;;;;;;;8.48;6.05;;;;;;;;;;5053795;28;20035;-71
2022/03/26 09:13:10;;;;;;;5.85;5.20;;;;;;;;;;5056536;28;20017;-71
2022/03/26 09:15:37;;;;;;;8.82;5.60;;;;;;;;;;5025170;28;20146;-71
2022/03/26 09:18:03;;;;;;;7.55;5.28;;;;;;;;;;5041601;28;20025;-72
2022/03/26 09:20:29;;;;;;;7.10;4.88;;;;;;;;;;5020681;28;20977;-71
2022/03/26 09:22:56;;;;;;;7.25;5.53;;;;;;;;;;5023911;28;20503;-71
2022/03/26 09:25:22;;;;;;;8.82;4.47;;;;;;;;;;5040679;28;20040;-71
2022/03/26 09:27:49;;;;;;;6.25;4.82;;;;;;;;;;5039808;28;20025;-71
2022/03/26 09:30:15;;;;;;;7.80;5.82;;;;;;;;;;5041905;28;20831;-72
2022/03/26 09:32:44;;;;;;;9.45;6.85;;;;;;;;;;5046316;28;20644;-71
2022/03/26 09:35:11;;;;;;;8.68;6.70;;;;;;;;;;5046837;28;20082;-70
2022/03/26 09:37:37;;;;;;;8.50;6.80;;;;;;;;;;5041642;28;20361;-71
2022/03/26 09:40:04;;;;;;;11.70;7.25;;;;;;;;;;5043718;28;20553;-72
2022/03/26 09:42:32;;;;;;;7.97;5.40;;;;;;;;;;5041249;28;20624;-70
2022/03/26 09:44:59;;;;;;;5.65;4.28;;;;;;;;;;5046271;28;20040;-71
2022/03/26 09:47:25;;;;;;;6.63;5.38;;;;;;;;;;5042392;28;20028;-70
2022/03/26 09:49:51;;;;;;;8.27;6.88;;;;;;;;;;5041170;28;20480;-71
2022/03/26 09:52:17;;;;;;;8.88;4.90;;;;;;;;;;5041229;28;20021;-77
2022/03/26 09:54:44;;;;;;;7.30;5.03;;;;;;;;;;5038512;28;20067;-74
2022/03/26 09:57:10;;;;;;;8.07;5.55;;;;;;;;;;5040572;28;20025;-71
2022/03/26 09:59:36;;;;;;;6.68;4.28;;;;;;;;;;5042215;28;20025;-72
2022/03/26 10:02:03;;;;;;;6.22;4.75;;;;;;;;;;5044792;28;20029;-71
2022/03/26 10:04:37;;;;;;;7.45;4.72;;;;;;;;;;5044055;28;20401;-71
2022/03/26 10:07:04;;;;;;;7.82;5.15;;;;;;;;;;5044512;28;20175;-71
2022/03/26 10:09:38;;;;;;;9.63;8.25;;;;;;;;;;5044166;28;20050;-72
2022/03/26 10:12:05;;;;;;;12.07;8.82;;;;;;;;;;5044783;28;20883;-70
2022/03/26 10:14:44;;;;;;;11.73;9.20;;;;;;;;;;5043735;28;20025;-75
2022/03/26 10:17:10;;;;;;;11.02;8.45;;;;;;;;;;5041239;28;20036;-72
2022/03/26 10:19:36;;;;;;;14.07;8.77;;;;;;;;;;5043456;28;20039;-71
2022/03/26 10:22:03;;;;;;;11.73;9.25;;;;;;;;;;5043999;28;20554;-71
2022/03/26 10:24:29;;;;;;;13.18;8.85;;;;;;;;;;5048349;28;20106;-72
2022/03/26 10:26:58;;;;;;;12.60;8.77;;;;;;;;;;5040576;28;20031;-74
2022/03/26 10:29:24;;;;;;;9.80;8.73;;;;;;;;;;5044252;28;20029;-71
2022/03/26 10:34:35;;;;;;;10.95;8.82;;;;;;;;;;5043677;28;20116;-73
2022/03/26 10:37:02;;;;;;;13.65;10.00;;;;;;;;;;5042624;28;20366;-76
2022/03/26 10:39:29;;;;;;;10.27;8.88;;;;;;;;;;5044538;28;20060;-71
2022/03/26 10:41:56;;;;;;;13.60;10.27;;;;;;;;;;5044050;28;20484;-70
2022/03/26 10:44:26;;;;;;;12.32;9.95;;;;;;;;;;5038986;28;20055;-73
2022/03/26 10:46:52;;;;;;;14.00;10.25;;;;;;;;;;5043330;28;20035;-71
2022/03/26 10:49:26;;;;;;;12.50;10.05;;;;;;;;;;5042989;28;20059;-71
2022/03/26 10:51:53;;;;;;;11.45;9.60;;;;;;;;;;5043911;28;20511;-71
2022/03/26 10:54:19;;;;;;;12.20;8.75;;;;;;;;;;5044203;28;20033;-75
2022/03/26 10:56:45;;;;;;;12.18;8.65;;;;;;;;;;5044042;28;20055;-71
2022/03/26 10:59:11;;;;;;;11.88;8.93;;;;;;;;;;5039822;28;20025;-73
2022/03/26 11:01:38;;;;;;;15.60;9.30;;;;;;;;;;5042178;28;20025;-71
2022/03/26 11:04:04;;;;;;;11.57;9.10;;;;;;;;;;5041479;28;20512;-71
2022/03/26 11:06:33;;;;;;;10.95;8.25;;;;;;;;;;5039943;28;20501;-71
2022/03/26 11:09:01;;;;;;;9.95;8.52;;;;;;;;;;5041319;28;20155;-72
2022/03/26 11:11:28;;;;;;;10.75;9.13;;;;;;;;;;5042601;28;20025;-72
2022/03/26 11:13:56;;;;;;;9.73;8.73;;;;;;;;;;5044161;28;20032;-70
2022/03/26 11:16:28;;;;;;;10.32;7.88;;;;;;;;;;5043373;28;20451;-72
2022/03/26 11:19:03;;;;;;;13.23;8.70;;;;;;;;;;5063243;28;20588;-71
2022/03/26 11:21:33;;;;;;;10.38;8.13;;;;;;;;;;5040307;28;20392;-72
2022/03/26 11:24:16;;;;;;;12.00;8.70;;;;;;;;;;5043386;28;20430;-72
2022/03/26 11:26:43;;;;;;;11.50;8.73;;;;;;;;;;5042984;28;20064;-71
2022/03/26 11:29:27;;;;;;;9.93;7.72;;;;;;;;;;5042688;28;20029;-71
2022/03/26 11:32:12;;;;;;;11.65;8.77;;;;;;;;;;5043604;28;20548;-72
2022/03/26 11:34:38;;;;;;;10.25;9.00;;;;;;;;;;5041923;28;20059;-71
2022/03/26 11:37:14;;;;;;;11.43;9.27;;;;;;;;;;5043555;28;20017;-69
2022/03/26 11:39:45;;;;;;;12.02;8.75;;;;;;;;;;5040136;28;20190;-71
2022/03/26 11:42:11;;;;;;;13.20;10.07;;;;;;;;;;5043246;28;20495;-71
2022/03/26 11:44:43;;;;;;;13.75;9.93;;;;;;;;;;5041188;28;20063;-74
2022/03/26 11:53:08;;;;;;;15.35;11.07;;;;;;;;;;5042170;28;20112;-70
2022/03/26 11:55:45;;;;;;;14.20;10.52;;;;;;;;;;5057503;28;20036;-71
2022/03/26 11:58:14;;;;;;;17.95;10.43;;;;;;;;;;5049147;28;20036;-71
2022/03/26 12:00:53;;;;;;;13.27;9.75;;;;;;;;;;5062200;28;20023;-71
2022/03/26 12:03:23;;;;;;;12.73;10.43;;;;;;;;;;5062571;28;20024;-71
2022/03/26 12:08:35;;;;;;;10.60;9.45;;;;;;;;;;5062387;28;20089;-75
2022/03/26 12:11:02;;;;;;;10.68;9.57;;;;;;;;;;5061382;28;20020;-71
2022/03/26 12:13:32;;;;;;;11.25;10.13;;;;;;;;;;5061777;28;20051;-73
2022/03/26 12:16:05;;;;;;;15.65;10.85;;;;;;;;;;5061237;28;20017;-74
2022/03/26 12:18:33;;;;;;;16.42;10.45;;;;;;;;;;5062318;28;20032;-72
2022/03/26 12:21:17;;;;;;;13.30;10.88;;;;;;;;;;5043731;28;20079;-71
2022/03/26 12:23:44;;;;;;;13.63;11.00;;;;;;;;;;5041254;28;20048;-71
2022/03/26 12:26:10;;;;;;;13.35;10.63;;;;;;;;;;5039688;28;20021;-70
2022/03/26 12:28:38;;;;;;;16.77;12.70;;;;;;;;;;5042981;28;20175;-71
2022/03/26 12:31:05;;;;;;;14.85;12.20;;;;;;;;;;5024193;28;20500;-70
2022/03/26 12:33:45;;;;;;;14.45;11.00;;;;;;;;;;5037680;28;20017;-70
2022/03/26 12:36:12;;;;;;;15.18;11.90;;;;;;;;;;5041521;28;20021;-71
2022/03/26 12:38:38;;;;;;;16.60;11.98;;;;;;;;;;5042188;28;20091;-70
2022/03/26 12:41:06;;;;;;;13.35;10.75;;;;;;;;;;5026712;28;20083;-70
2022/03/26 12:43:32;;;;;;;15.30;10.70;;;;;;;;;;5023649;28;20598;-70
2022/03/26 12:45:59;;;;;;;10.85;7.55;;;;;;;;;;5059911;28;20024;-69
2022/03/26 12:48:28;;;;;;;10.23;7.95;;;;;;;;;;5056143;28;20104;-74
2022/03/26 12:50:55;;;;;;;11.00;7.75;;;;;;;;;;5041544;28;20604;-71
2022/03/26 12:53:21;;;;;;;15.60;8.38;;;;;;;;;;5040004;28;20028;-73
2022/03/26 12:55:55;;;;;;;13.70;8.60;;;;;;;;;;5041265;28;20021;-71
2022/03/26 13:01:08;;;;;;;12.70;8.40;;;;;;;;;;5041879;28;20071;-75
2022/03/26 13:03:34;;;;;;;11.40;8.88;;;;;;;;;;5039948;28;20033;-70
2022/03/26 13:06:04;;;;;;;16.35;8.00;;;;;;;;;;5037889;28;20072;-77
2022/03/26 13:08:30;;;;;;;12.52;9.07;;;;;;;;;;5042385;28;20081;-74
2022/03/26 13:10:56;;;;;;;11.75;9.30;;;;;;;;;;5039729;28;20028;-71
2022/03/26 13:13:24;;;;;;;14.00;8.27;;;;;;;;;;5042417;28;20105;-71
2022/03/26 13:16:08;;;;;;;13.55;9.48;;;;;;;;;;5060944;28;20590;-71
2022/03/26 13:18:41;;;;;;;12.15;9.93;;;;;;;;;;5060810;28;20056;-71
2022/03/26 13:21:07;;;;;;;13.85;9.80;;;;;;;;;;5059694;28;20020;-70
2022/03/26 13:23:33;;;;;;;10.05;8.30;;;;;;;;;;5060620;28;20032;-70
2022/03/26 13:26:03;;;;;;;12.48;9.45;;;;;;;;;;5060876;28;20031;-71
2022/03/26 13:28:34;;;;;;;11.82;8.45;;;;;;;;;;5061002;28;20078;-71
2022/03/26 13:31:00;;;;;;;12.95;7.97;;;;;;;;;;5060705;28;20381;-71
2022/03/26 13:33:31;;;;;;;21.48;9.18;;;;;;;;;;5061308;28;20021;-71
2022/03/26 13:35:58;;;;;;;11.73;8.80;;;;;;;;;;5064702;28;20020;-71
2022/03/26 13:38:43;;;;;;;11.35;9.05;;;;;;;;;;5064319;28;20104;-71
2022/03/26 13:41:15;;;;;;;9.80;8.75;;;;;;;;;;5063392;28;20028;-70
2022/03/26 13:43:42;;;;;;;12.32;8.00;;;;;;;;;;5045280;28;20055;-70
2022/03/26 13:46:08;;;;;;;12.27;8.38;;;;;;;;;;5042863;28;20031;-70
2022/03/26 13:48:53;;;;;;;13.18;8.50;;;;;;;;;;5045884;28;20037;-70
2022/03/26 13:51:29;;;;;;;13.18;9.13;;;;;;;;;;5045106;28;20099;-70
2022/03/26 13:53:56;;;;;;;15.93;10.00;;;;;;;;;;5044549;28;20033;-69
2022/03/26 13:56:29;;;;;;;15.70;9.05;;;;;;;;;;5044850;28;20853;-68
2022/03/26 13:58:56;;;;;;;15.73;10.23;;;;;;;;;;5044677;28;20095;-69
2022/03/26 14:01:22;;;;;;;13.48;10.52;;;;;;;;;;5045144;28;20049;-69
2022/03/26 14:03:53;;;;;;;11.85;8.85;;;;;;;;;;5043731;28;20043;-69
2022/03/26 14:06:19;;;;;;;16.73;8.98;;;;;;;;;;5030234;28;20841;-69
2022/03/26 14:08:47;;;;;;;16.10;9.60;;;;;;;;;;5026194;28;20546;-69
2022/03/26 14:11:20;;;;;;;13.25;9.25;;;;;;;;;;5042885;28;20083;-70
2022/03/26 14:13:47;;;;;;;12.55;10.02;;;;;;;;;;5024054;28;20040;-70
2022/03/26 14:16:13;;;;;;;14.10;9.15;;;;;;;;;;5024808;28;20033;-70
2022/03/26 14:18:39;;;;;;;12.57;9.57;;;;;;;;;;5041973;28;20041;-69
2022/03/26 14:21:06;;;;;;;11.10;8.00;;;;;;;;;;5042470;28;20021;-70
2022/03/26 14:23:32;;;;;;;8.80;7.97;;;;;;;;;;5044510;28;20063;-69
2022/03/26 14:25:58;;;;;;;13.27;8.40;;;;;;;;;;5041935;28;20037;-69
2022/03/26 14:28:25;;;;;;;12.70;8.43;;;;;;;;;;5043394;28;20029;-69
2022/03/26 14:30:51;;;;;;;10.75;8.05;;;;;;;;;;5039839;28;20156;-70
2022/03/26 14:33:17;;;;;;;14.95;10.13;;;;;;;;;;5017340;28;20025;-70
2022/03/26 14:35:44;;;;;;;12.80;9.35;;;;;;;;;;5038490;28;20033;-72
2022/03/26 14:38:11;;;;;;;12.75;10.10;;;;;;;;;;5041068;28;20033;-69
2022/03/26 14:40:38;;;;;;;17.65;10.98;;;;;;;;;;5040051;28;20036;-69
2022/03/26 14:43:04;;;;;;;13.07;11.18;;;;;;;;;;5039294;28;20025;-70
2022/03/26 14:45:31;;;;;;;13.85;10.68;;;;;;;;;;5040091;28;20047;-70
2022/03/26 14:47:57;;;;;;;12.93;10.15;;;;;;;;;;5040340;28;20029;-70
2022/03/26 14:50:23;;;;;;;14.43;10.60;;;;;;;;;;5040695;28;20108;-69